createdAt,value
2018-10-07T00:00:44.844Z,99.90
2018-10-07T00:03:16.159Z,99.90
2018-10-07T00:05:47.056Z,99.90
2018-10-07T00:08:18.177Z,99.90
2018-10-07T00:10:49.215Z,99.90
2018-10-07T00:13:21.068Z,99.90
2018-10-07T00:15:52.215Z,99.90
2018-10-07T00:18:23.780Z,99.90
2018-10-07T00:20:54.804Z,99.90
2018-10-07T00:23:26.072Z,99.90
2018-10-07T00:25:57.113Z,99.90
2018-10-07T00:28:28.447Z,99.90
2018-10-07T00:30:59.302Z,99.90
2018-10-07T00:33:30.756Z,99.90
2018-10-07T00:36:01.879Z,99.90
2018-10-07T00:38:34.987Z,99.90
2018-10-07T00:41:07.413Z,99.90
2018-10-07T00:43:38.535Z,99.90
2018-10-07T00:46:09.988Z,99.90
2018-10-07T00:48:41.275Z,99.90
2018-10-07T00:51:12.447Z,99.90
2018-10-07T00:53:44.608Z,99.90
2018-10-07T00:56:15.859Z,99.90
2018-10-07T00:58:47.155Z,99.90
2018-10-07T01:01:18.253Z,99.90
2018-10-07T01:03:49.575Z,99.90
2018-10-07T01:06:21.268Z,99.90
2018-10-07T01:08:53.411Z,99.90
2018-10-07T01:11:25.303Z,99.90
2018-10-07T01:13:57.040Z,99.90
2018-10-07T01:16:28.520Z,99.90
2018-10-07T01:18:59.937Z,99.90
2018-10-07T01:21:31.405Z,99.90
2018-10-07T01:24:03.243Z,99.90
2018-10-07T01:26:34.504Z,99.90
2018-10-07T01:29:06.167Z,99.90
2018-10-07T01:31:37.823Z,99.90
2018-10-07T01:34:09.351Z,99.90
2018-10-07T01:36:40.810Z,99.90
2018-10-07T01:39:13.255Z,99.90
2018-10-07T01:41:44.691Z,99.90
2018-10-07T01:44:16.699Z,99.90
2018-10-07T01:46:48.027Z,99.90
2018-10-07T01:49:19.635Z,99.90
2018-10-07T01:51:51.139Z,99.90
2018-10-07T01:54:22.676Z,99.90
2018-10-07T01:56:55.537Z,99.90
2018-10-07T01:59:28.188Z,99.90
2018-10-07T02:01:59.784Z,99.90
2018-10-07T02:04:31.738Z,99.90
2018-10-07T02:07:04.579Z,99.90
2018-10-07T02:09:36.440Z,99.90
2018-10-07T02:12:07.884Z,99.90
2018-10-07T02:14:39.500Z,99.90
2018-10-07T02:17:11.093Z,99.90
2018-10-07T02:19:42.538Z,99.90
2018-10-07T02:22:13.946Z,99.90
2018-10-07T02:24:45.645Z,99.90
2018-10-07T02:27:17.030Z,99.90
2018-10-07T02:29:49.098Z,99.90
2018-10-07T02:32:20.550Z,99.90
2018-10-07T02:34:52.662Z,99.90
2018-10-07T02:37:23.927Z,99.90
2018-10-07T02:39:55.540Z,99.90
2018-10-07T02:42:27.104Z,99.90
2018-10-07T02:44:59.319Z,99.90
2018-10-07T02:47:31.831Z,99.90
2018-10-07T02:50:12.862Z,99.90
2018-10-07T02:52:49.421Z,99.90
2018-10-07T02:55:26.539Z,99.90
2018-10-07T02:58:01.566Z,99.90
2018-10-07T03:00:33.887Z,99.90
2018-10-07T03:03:05.280Z,99.90
2018-10-07T03:05:37.055Z,99.90
2018-10-07T03:08:10.606Z,99.90
2018-10-07T03:10:42.270Z,99.90
2018-10-07T03:13:14.329Z,99.90
2018-10-07T03:15:46.601Z,99.90
2018-10-07T03:18:18.058Z,99.90
2018-10-07T03:20:50.050Z,99.90
2018-10-07T03:23:21.478Z,99.90
2018-10-07T03:25:53.094Z,99.90
2018-10-07T03:28:24.482Z,99.90
2018-10-07T03:30:56.073Z,99.90
2018-10-07T03:33:27.998Z,99.90
2018-10-07T03:35:59.978Z,99.90
2018-10-07T03:38:31.419Z,99.90
2018-10-07T03:41:05.226Z,99.90
2018-10-07T03:43:36.821Z,99.90
2018-10-07T03:46:08.956Z,99.90
2018-10-07T03:48:40.214Z,99.90
2018-10-07T03:51:12.002Z,99.90
2018-10-07T03:53:43.574Z,99.90
2018-10-07T03:56:15.617Z,99.90
2018-10-07T03:58:47.690Z,99.90
2018-10-07T04:01:19.610Z,99.90
2018-10-07T04:03:50.998Z,99.90
2018-10-07T04:06:22.812Z,99.90
2018-10-07T04:08:54.433Z,99.90
2018-10-07T04:11:25.978Z,99.90
2018-10-07T04:13:57.390Z,99.90
2018-10-07T04:16:29.486Z,99.90
2018-10-07T04:19:01.145Z,99.90
2018-10-07T04:21:32.783Z,99.90
2018-10-07T04:24:05.878Z,99.90
2018-10-07T04:26:37.799Z,99.90
2018-10-07T04:29:09.122Z,99.90
2018-10-07T04:31:40.903Z,99.90
2018-10-07T04:34:12.514Z,99.90
2018-10-07T04:36:43.986Z,99.90
2018-10-07T04:39:15.339Z,99.90
2018-10-07T04:41:47.218Z,99.90
2018-10-07T04:44:18.526Z,99.90
2018-10-07T04:46:50.506Z,99.90
2018-10-07T04:49:21.866Z,99.90
2018-10-07T04:51:53.342Z,99.90
2018-10-07T04:54:24.884Z,99.90
2018-10-07T04:56:56.739Z,97.50
2018-10-07T04:59:29.248Z,95.50
2018-10-07T05:02:01.520Z,93.10
2018-10-07T05:04:32.880Z,90.40
2018-10-07T05:07:04.916Z,89.60
2018-10-07T05:09:36.811Z,86.40
2018-10-07T05:12:09.256Z,81.80
2018-10-07T05:14:41.729Z,79.60
2018-10-07T05:17:13.816Z,76.70
2018-10-07T05:19:45.227Z,76.00
2018-10-07T05:22:16.719Z,74.40
2018-10-07T05:24:48.236Z,75.90
2018-10-07T05:27:19.936Z,78.20
2018-10-07T05:29:51.251Z,79.00
2018-10-07T05:32:22.615Z,77.70
2018-10-07T05:34:53.672Z,76.80
2018-10-07T05:37:24.899Z,76.40
2018-10-07T05:39:55.814Z,73.60
2018-10-07T05:42:26.963Z,74.00
2018-10-07T05:44:58.384Z,75.30
2018-10-07T05:47:30.028Z,72.40
2018-10-07T05:50:02.992Z,72.60
2018-10-07T05:52:35.800Z,73.20
2018-10-07T05:55:07.715Z,73.60
2018-10-07T05:57:39.365Z,74.30
2018-10-07T06:00:14.482Z,74.60
2018-10-07T06:02:47.938Z,72.10
2018-10-07T06:05:19.864Z,73.30
2018-10-07T06:07:52.176Z,72.70
2018-10-07T06:10:23.488Z,72.50
2018-10-07T06:12:54.963Z,71.90
2018-10-07T06:15:38.827Z,71.10
2018-10-07T06:18:11.076Z,70.20
2018-10-07T06:20:42.515Z,69.60
2018-10-07T06:23:14.213Z,69.00
2018-10-07T06:25:45.396Z,69.20
2018-10-07T06:28:17.068Z,68.20
2018-10-07T06:30:48.688Z,67.10
2018-10-07T06:33:20.292Z,66.40
2018-10-07T06:35:51.583Z,65.30
2018-10-07T06:38:23.361Z,61.00
2018-10-07T06:40:54.716Z,58.90
2018-10-07T06:43:26.440Z,55.70
2018-10-07T06:45:58.073Z,54.00
2018-10-07T06:48:29.612Z,51.90
2018-10-07T06:51:01.005Z,51.30
2018-10-07T06:53:32.860Z,50.50
2018-10-07T06:56:05.017Z,51.70
2018-10-07T06:58:36.981Z,52.90
2018-10-07T07:01:09.797Z,52.10
2018-10-07T07:03:41.980Z,52.40
2018-10-07T07:06:13.483Z,53.40
2018-10-07T07:08:44.968Z,52.70
2018-10-07T07:11:16.402Z,53.70
2018-10-07T07:13:48.271Z,55.60
2018-10-07T07:16:19.411Z,55.30
2018-10-07T07:18:51.212Z,54.90
2018-10-07T07:21:22.616Z,54.60
2018-10-07T07:23:54.277Z,54.80
2018-10-07T07:26:25.831Z,56.00
2018-10-07T07:28:58.164Z,55.80
2018-10-07T07:31:29.636Z,55.50
2018-10-07T07:34:01.171Z,55.90
2018-10-07T07:36:32.523Z,55.80
2018-10-07T07:39:04.360Z,56.50
2018-10-07T07:41:35.665Z,55.40
2018-10-07T07:44:07.425Z,54.80
2018-10-07T07:46:38.947Z,56.20
2018-10-07T07:49:10.751Z,55.70
2018-10-07T07:51:42.184Z,54.90
2018-10-07T07:54:14.140Z,53.90
2018-10-07T07:56:45.717Z,53.80
2018-10-07T07:59:17.075Z,51.70
2018-10-07T08:01:49.316Z,50.40
2018-10-07T08:04:21.080Z,50.70
2018-10-07T08:06:52.560Z,48.90
2018-10-07T08:09:24.924Z,47.90
2018-10-07T08:11:56.274Z,49.50
2018-10-07T08:14:28.372Z,51.10
2018-10-07T08:16:59.840Z,50.50
2018-10-07T08:19:31.315Z,49.90
2018-10-07T08:22:03.663Z,50.50
2018-10-07T08:24:35.259Z,51.00
2018-10-07T08:27:06.968Z,52.00
2018-10-07T08:29:38.748Z,52.00
2018-10-07T08:32:10.088Z,52.10
2018-10-07T08:34:41.611Z,50.80
2018-10-07T08:37:13.028Z,51.30
2018-10-07T08:39:44.908Z,58.50
2018-10-07T08:42:16.668Z,62.80
2018-10-07T08:44:48.452Z,65.20
2018-10-07T08:47:19.767Z,66.90
2018-10-07T08:49:51.396Z,66.90
2018-10-07T08:52:22.783Z,65.60
2018-10-07T08:54:54.159Z,63.10
2018-10-07T08:57:25.588Z,63.70
2018-10-07T08:59:57.120Z,64.10
2018-10-07T09:02:29.432Z,65.40
2018-10-07T09:05:01.375Z,66.50
2018-10-07T09:07:32.742Z,66.60
2018-10-07T09:10:04.512Z,69.80
2018-10-07T09:12:35.771Z,73.30
2018-10-07T09:15:07.590Z,80.70
2018-10-07T09:17:39.020Z,89.70
2018-10-07T09:20:10.308Z,93.90
2018-10-07T09:22:41.671Z,95.90
2018-10-07T09:25:13.211Z,97.40
2018-10-07T09:27:44.475Z,98.80
2018-10-07T09:30:15.824Z,99.90
2018-10-07T09:32:47.208Z,99.90
2018-10-07T09:35:18.645Z,99.90
2018-10-07T09:37:50.787Z,99.90
2018-10-07T09:40:23.712Z,99.90
2018-10-07T09:42:55.136Z,99.90
2018-10-07T09:45:26.783Z,99.90
2018-10-07T09:47:59.456Z,99.90
2018-10-07T09:50:30.923Z,99.90
2018-10-07T09:53:03.716Z,99.90
2018-10-07T09:55:35.203Z,99.90
2018-10-07T09:58:07.016Z,99.90
2018-10-07T10:00:41.499Z,99.90
2018-10-07T10:03:13.232Z,99.90
2018-10-07T10:05:45.037Z,99.90
2018-10-07T10:08:16.490Z,99.90
2018-10-07T10:10:49.139Z,99.90
2018-10-07T10:13:20.652Z,99.90
2018-10-07T10:15:52.262Z,99.90
2018-10-07T10:18:30.092Z,99.90
2018-10-07T10:21:08.928Z,99.90
2018-10-07T10:23:49.676Z,99.90
2018-10-07T10:26:39.456Z,99.90
2018-10-07T10:29:29.753Z,99.90
2018-10-07T10:32:08.705Z,99.90
2018-10-07T10:36:51.015Z,99.90
2018-10-07T10:39:34.289Z,99.90
2018-10-07T10:42:14.690Z,99.90
2018-10-07T10:44:48.599Z,99.90
2018-10-07T10:47:28.919Z,99.90
2018-10-07T10:52:15.711Z,99.90
2018-10-07T10:54:51.491Z,99.90
2018-10-07T10:57:32.980Z,99.90
2018-10-07T11:00:12.599Z,99.90
2018-10-07T11:05:04.380Z,98.80
2018-10-07T11:07:58.806Z,97.10
2018-10-07T11:10:34.928Z,99.90
2018-10-07T11:13:41.948Z,99.90
2018-10-07T11:17:25.908Z,99.90
2018-10-07T11:20:02.480Z,99.50
2018-10-07T11:23:49.322Z,98.50
2018-10-07T11:28:07.353Z,98.20
2018-10-07T11:30:53.373Z,97.00
2018-10-07T11:35:36.386Z,97.60
2018-10-07T11:38:16.745Z,97.30
2018-10-07T11:41:05.099Z,96.40
2018-10-07T11:43:58.631Z,96.80
2018-10-07T11:47:16.258Z,96.60
2018-10-07T11:49:53.918Z,97.50
2018-10-07T11:53:08.767Z,98.40
2018-10-07T11:55:40.502Z,99.50
2018-10-07T11:58:11.483Z,99.00
2018-10-07T12:00:42.740Z,99.10
2018-10-07T12:03:13.717Z,99.00
2018-10-07T12:05:45.107Z,99.10
2018-10-07T12:08:16.968Z,99.90
2018-10-07T12:10:48.468Z,99.90
2018-10-07T12:13:19.588Z,99.90
2018-10-07T12:15:51.085Z,99.90
2018-10-07T12:18:21.969Z,99.90
2018-10-07T12:20:53.382Z,99.90
2018-10-07T12:23:24.445Z,99.60
2018-10-07T12:25:55.696Z,99.60
2018-10-07T12:28:26.741Z,99.70
2018-10-07T12:30:58.409Z,99.90
2018-10-07T12:33:29.556Z,99.90
2018-10-07T12:36:00.869Z,99.90
2018-10-07T12:38:31.831Z,99.90
2018-10-07T12:41:04.019Z,99.90
2018-10-07T12:43:38.008Z,99.90
2018-10-07T12:46:09.764Z,99.90
2018-10-07T12:48:40.831Z,99.90
2018-10-07T12:51:12.148Z,99.90
2018-10-07T12:53:43.111Z,99.90
2018-10-07T12:56:14.403Z,99.90
2018-10-07T12:58:45.309Z,99.90
2018-10-07T13:01:16.628Z,99.90
2018-10-07T13:03:48.192Z,99.90
2018-10-07T13:06:19.815Z,99.90
2018-10-07T13:08:52.051Z,99.90
2018-10-07T13:11:23.469Z,99.90
2018-10-07T13:13:54.496Z,99.90
2018-10-07T13:16:26.177Z,99.90
2018-10-07T13:18:57.900Z,99.90
2018-10-07T13:21:29.287Z,99.90
2018-10-07T13:24:00.816Z,99.90
2018-10-07T13:26:32.273Z,99.90
2018-10-07T13:29:03.432Z,99.90
2018-10-07T13:31:35.766Z,99.90
2018-10-07T13:34:07.092Z,99.90
2018-10-07T13:36:38.964Z,99.90
2018-10-07T13:39:12.092Z,99.90
2018-10-07T13:41:44.075Z,99.90
2018-10-07T13:44:15.393Z,99.90
2018-10-07T13:46:47.011Z,99.90
2018-10-07T13:49:18.464Z,99.90
2018-10-07T13:51:50.441Z,99.90
2018-10-07T13:54:21.895Z,99.90
2018-10-07T13:56:53.559Z,99.90
2018-10-07T13:59:25.264Z,99.90
2018-10-07T14:01:57.107Z,99.90
2018-10-07T14:04:28.564Z,99.90
2018-10-07T14:07:00.399Z,99.90
2018-10-07T14:09:33.172Z,99.90
2018-10-07T14:12:05.820Z,99.90
2018-10-07T14:14:36.748Z,99.90
2018-10-07T14:17:08.134Z,99.90
2018-10-07T14:19:39.050Z,99.90
2018-10-07T14:22:10.311Z,99.90
2018-10-07T14:24:41.968Z,99.90
2018-10-07T14:27:13.727Z,99.90
2018-10-07T14:29:44.728Z,99.90
2018-10-07T14:32:16.712Z,99.90
2018-10-07T14:34:47.876Z,99.90
2018-10-07T14:37:19.711Z,99.90
2018-10-07T14:39:51.263Z,99.90
2018-10-07T14:42:22.874Z,99.90
2018-10-07T14:44:54.385Z,99.90
2018-10-07T14:47:26.043Z,99.90
2018-10-07T14:49:57.519Z,99.90
2018-10-07T14:52:29.432Z,99.90
2018-10-07T14:55:01.346Z,99.90
2018-10-07T14:57:32.882Z,99.90
2018-10-07T15:00:04.652Z,99.90
2018-10-07T15:02:36.496Z,99.90
2018-10-07T15:05:07.721Z,99.90
2018-10-07T15:07:39.844Z,99.90
2018-10-07T15:10:12.184Z,99.90
2018-10-07T15:12:43.425Z,99.90
2018-10-07T15:15:14.352Z,99.90
2018-10-07T15:17:45.756Z,99.90
2018-10-07T15:20:16.807Z,99.90
2018-10-07T15:22:48.035Z,99.90
2018-10-07T15:25:19.003Z,99.90
2018-10-07T15:27:50.347Z,99.90
2018-10-07T15:30:21.312Z,99.90
2018-10-07T15:32:52.847Z,99.90
2018-10-07T15:35:23.897Z,99.90
2018-10-07T15:37:55.233Z,99.90
2018-10-07T15:40:26.103Z,99.90
2018-10-07T15:42:57.355Z,99.90
2018-10-07T15:45:28.304Z,99.90
2018-10-07T15:47:59.496Z,99.90
2018-10-07T15:50:30.561Z,99.90
2018-10-07T15:53:01.736Z,99.90
2018-10-07T15:55:32.760Z,99.90
2018-10-07T15:58:04.297Z,99.90
2018-10-07T16:00:35.480Z,99.90
2018-10-07T16:03:06.947Z,99.90
2018-10-07T16:05:37.999Z,99.90
2018-10-07T16:08:09.172Z,99.90
2018-10-07T16:10:42.105Z,99.90
2018-10-07T16:13:13.823Z,99.90
2018-10-07T16:15:44.804Z,99.90
2018-10-07T16:18:15.976Z,99.90
2018-10-07T16:20:46.980Z,99.90
2018-10-07T16:23:18.309Z,99.90
2018-10-07T16:25:49.568Z,99.90
2018-10-07T16:28:20.964Z,99.90
2018-10-07T16:30:53.463Z,99.90
2018-10-07T16:33:25.317Z,99.90
2018-10-07T16:35:56.376Z,99.90
2018-10-07T16:38:27.696Z,99.90
2018-10-07T16:40:59.043Z,99.90
2018-10-07T16:43:30.312Z,98.40
2018-10-07T16:46:02.214Z,97.10
2018-10-07T16:48:33.678Z,96.40
2018-10-07T16:51:07.675Z,95.70
2018-10-07T16:53:39.727Z,95.80
2018-10-07T16:56:10.856Z,95.10
2018-10-07T16:58:42.558Z,94.40
2018-10-07T17:01:13.911Z,94.10
2018-10-07T17:03:45.514Z,94.00
2018-10-07T17:06:16.900Z,94.00
2018-10-07T17:08:48.520Z,93.80
2018-10-07T17:11:20.635Z,93.90
2018-10-07T17:13:52.345Z,93.60
2018-10-07T17:16:23.589Z,93.60
2018-10-07T17:18:55.279Z,94.00
2018-10-07T17:21:26.758Z,94.00
2018-10-07T17:23:58.732Z,93.50
2018-10-07T17:26:30.072Z,93.50
2018-10-07T17:29:02.095Z,93.40
2018-10-07T17:31:33.411Z,93.30
2018-10-07T17:34:05.118Z,93.40
2018-10-07T17:36:36.268Z,93.20
2018-10-07T17:39:10.250Z,93.10
2018-10-07T17:41:41.951Z,93.10
2018-10-07T17:44:13.707Z,93.40
2018-10-07T17:46:45.191Z,93.20
2018-10-07T17:49:17.649Z,93.40
2018-10-07T17:51:48.867Z,93.40
2018-10-07T17:54:20.450Z,93.30
2018-10-07T17:56:51.938Z,93.40
2018-10-07T17:59:23.647Z,93.80
2018-10-07T18:01:55.179Z,95.60
2018-10-07T18:04:27.255Z,96.30
2018-10-07T18:06:58.572Z,96.80
2018-10-07T18:09:30.236Z,96.70
2018-10-07T18:12:02.954Z,96.60
2018-10-07T18:14:34.568Z,97.20
2018-10-07T18:17:05.902Z,97.80
2018-10-07T18:19:37.514Z,98.40
2018-10-07T18:22:08.950Z,98.10
2018-10-07T18:24:40.412Z,98.00
2018-10-07T18:27:11.786Z,98.50
2018-10-07T18:29:43.130Z,98.20
2018-10-07T18:32:14.402Z,98.10
2018-10-07T18:34:46.291Z,98.00
2018-10-07T18:37:17.594Z,99.30
2018-10-07T18:39:49.168Z,99.50
2018-10-07T18:42:20.172Z,98.70
2018-10-07T18:44:51.734Z,99.10
2018-10-07T18:47:22.715Z,99.60
2018-10-07T18:49:53.915Z,99.90
2018-10-07T18:52:24.779Z,99.70
2018-10-07T18:54:56.066Z,99.90
2018-10-07T18:57:27.050Z,99.90
2018-10-07T18:59:58.779Z,99.90
2018-10-07T19:02:30.159Z,99.90
2018-10-07T19:05:01.794Z,99.90
2018-10-07T19:07:33.197Z,99.90
2018-10-07T19:10:06.079Z,99.90
2018-10-07T19:12:37.931Z,99.90
2018-10-07T19:15:09.288Z,99.90
2018-10-07T19:17:40.467Z,99.90
2018-10-07T19:20:12.198Z,99.90
2018-10-07T19:22:43.735Z,99.90
2018-10-07T19:25:15.373Z,99.90
2018-10-07T19:30:10.088Z,99.90
2018-10-07T19:32:41.804Z,99.90
2018-10-07T19:35:12.991Z,99.90
2018-10-07T19:37:44.624Z,99.90
2018-10-07T19:40:15.839Z,99.90
2018-10-07T19:42:47.750Z,99.90
2018-10-07T19:45:19.233Z,99.90
2018-10-07T19:47:50.707Z,99.90
2018-10-07T19:50:22.008Z,99.90
2018-10-07T19:52:53.782Z,99.90
2018-10-07T19:55:25.167Z,99.90
2018-10-07T19:57:57.025Z,99.90
2018-10-07T20:00:28.247Z,99.90
2018-10-07T20:02:59.976Z,99.90
2018-10-07T20:05:30.980Z,99.90
2018-10-07T20:08:02.836Z,99.90
2018-10-07T20:10:34.325Z,99.90
2018-10-07T20:13:07.784Z,99.90
2018-10-07T20:15:38.930Z,99.90
2018-10-07T20:18:10.414Z,99.90
2018-10-07T20:20:41.709Z,99.90
2018-10-07T20:23:13.480Z,99.90
2018-10-07T20:25:44.668Z,99.90
2018-10-07T20:28:16.512Z,99.90
2018-10-07T20:30:47.943Z,99.90
2018-10-07T20:33:19.152Z,99.90
2018-10-07T20:35:50.540Z,99.90
2018-10-07T20:38:22.490Z,99.90
2018-10-07T20:40:54.261Z,99.90
2018-10-07T20:43:25.567Z,99.90
2018-10-07T20:45:56.891Z,99.90
2018-10-07T20:48:28.300Z,99.90
2018-10-07T20:50:59.911Z,99.90
2018-10-07T20:53:31.471Z,99.90
2018-10-07T20:56:03.403Z,99.90
2018-10-07T20:58:35.159Z,99.90
2018-10-07T21:01:06.681Z,99.90
2018-10-07T21:03:38.133Z,99.90
2018-10-07T21:06:09.688Z,99.90
2018-10-07T21:08:41.387Z,99.90
2018-10-07T21:11:12.827Z,99.90
2018-10-07T21:13:45.274Z,99.90
2018-10-07T21:16:16.723Z,99.90
2018-10-07T21:18:48.559Z,99.90
2018-10-07T21:21:19.656Z,99.90
2018-10-07T21:23:51.460Z,99.90
2018-10-07T21:26:22.686Z,99.90
2018-10-07T21:28:54.216Z,99.90
2018-10-07T21:31:25.383Z,99.90
2018-10-07T21:33:56.919Z,99.90
2018-10-07T21:36:28.164Z,99.90
2018-10-07T21:38:59.935Z,99.90
2018-10-07T21:41:31.277Z,99.90
2018-10-07T21:44:03.064Z,99.90
2018-10-07T21:46:34.423Z,99.90
2018-10-07T21:49:06.521Z,99.90
2018-10-07T21:51:38.051Z,99.90
2018-10-07T21:54:09.611Z,99.90
2018-10-07T21:56:40.547Z,99.90
2018-10-07T21:59:11.999Z,99.90
2018-10-07T22:01:43.511Z,99.90
2018-10-07T22:04:15.668Z,99.90
2018-10-07T22:06:47.256Z,99.90
2018-10-07T22:09:18.886Z,99.90
2018-10-07T22:11:50.117Z,99.90
2018-10-07T22:14:23.259Z,99.90
2018-10-07T22:16:54.604Z,99.90
2018-10-07T22:19:26.359Z,99.90
2018-10-07T22:21:57.620Z,99.90
2018-10-07T22:24:29.408Z,99.90
2018-10-07T22:27:00.716Z,99.90
2018-10-07T22:29:32.467Z,99.90
2018-10-07T22:32:03.959Z,99.90
2018-10-07T22:34:35.500Z,99.90
2018-10-07T22:37:06.888Z,99.90
2018-10-07T22:39:38.663Z,99.90
2018-10-07T22:42:09.898Z,99.90
2018-10-07T22:44:41.516Z,99.90
2018-10-07T22:47:12.671Z,99.90
2018-10-07T22:49:44.275Z,99.90
2018-10-07T22:52:15.432Z,99.90
2018-10-07T22:54:47.175Z,99.90
2018-10-07T22:57:18.801Z,99.90
2018-10-07T22:59:50.343Z,99.90
2018-10-07T23:02:21.730Z,99.90
2018-10-07T23:04:53.435Z,99.90
2018-10-07T23:07:25.128Z,99.90
2018-10-07T23:09:56.688Z,99.90
2018-10-07T23:12:28.339Z,99.90
2018-10-07T23:15:05.218Z,99.90
2018-10-07T23:17:36.424Z,99.90
2018-10-07T23:20:10.000Z,99.90
2018-10-07T23:22:41.446Z,99.90
2018-10-07T23:25:12.687Z,99.90
2018-10-07T23:27:44.011Z,99.90
2018-10-07T23:30:15.807Z,99.90
2018-10-07T23:32:47.121Z,99.90
2018-10-07T23:35:18.712Z,99.90
2018-10-07T23:37:49.931Z,99.90
2018-10-07T23:40:22.047Z,99.90
2018-10-07T23:42:53.455Z,99.90
2018-10-07T23:45:25.064Z,99.90
2018-10-07T23:47:56.550Z,99.90
2018-10-07T23:50:28.440Z,99.90
2018-10-07T23:52:59.671Z,99.90
2018-10-07T23:55:31.588Z,99.90
2018-10-07T23:58:02.944Z,99.90
